Time;durP1;ratioP1;P1;durP2;ratioP2;P2;SDS_P1;SDS_P2;PMS_P1;PMS_P2;Temp;Humidity;BMP_temperature;BMP_pressure;BME280_temperature;BME280_humidity;BME280_pressure;Samples;Min_cycle;Max_cycle;Signal;HPM_P1;HPM_P2
2022/09/25 00:00:55;;;;;;;21.23;9.32;;;;;;;11.96;100.00;101017.38;6221901;28;20417;-72
2022/09/25 00:03:58;;;;;;;17.48;8.88;;;;;;;12.02;100.00;101024.94;6222056;28;20524;-71
2022/09/25 00:06:59;;;;;;;19.40;9.98;;;;;;;12.05;100.00;101030.06;6222149;28;20050;-72
2022/09/25 00:10:00;;;;;;;17.50;8.82;;;;;;;11.99;100.00;101027.75;6221750;28;20387;-72
2022/09/25 00:13:02;;;;;;;17.52;8.85;;;;;;;11.88;100.00;101032.75;6222115;28;20049;-71
2022/09/25 00:16:04;;;;;;;18.75;9.30;;;;;;;11.87;100.00;101031.06;6221583;28;20425;-71
2022/09/25 00:22:29;;;;;;;23.10;10.93;;;;;;;11.93;100.00;101030.72;6221887;28;20058;-72
2022/09/25 00:25:30;;;;;;;23.48;11.93;;;;;;;11.85;100.00;101028.50;6221680;28;20053;-72
2022/09/25 00:28:32;;;;;;;22.25;10.95;;;;;;;11.79;100.00;101030.59;6221828;28;20421;-72
2022/09/25 00:31:34;;;;;;;22.25;10.32;;;;;;;11.78;100.00;101032.38;6221674;28;20050;-72
2022/09/25 00:34:38;;;;;;;19.50;10.75;;;;;;;11.80;100.00;101019.13;6221695;28;20486;-72
2022/09/25 00:37:40;;;;;;;18.30;9.80;;;;;;;11.85;100.00;101027.63;6215356;28;20124;-73
2022/09/25 00:40:41;;;;;;;22.40;10.85;;;;;;;11.75;100.00;101023.78;6208535;28;20042;-71
2022/09/25 00:43:44;;;;;;;19.13;9.77;;;;;;;11.71;100.00;101022.25;6212853;28;20414;-72
2022/09/25 00:46:46;;;;;;;18.98;8.85;;;;;;;11.79;100.00;101026.16;6211719;28;20050;-72
2022/09/25 00:49:50;;;;;;;20.77;9.48;;;;;;;11.81;100.00;101029.59;6213610;28;20050;-72
2022/09/25 00:52:54;;;;;;;16.50;8.90;;;;;;;11.75;100.00;101023.78;6211533;28;20051;-72
2022/09/25 00:55:56;;;;;;;19.15;9.77;;;;;;;11.72;100.00;101024.81;6212680;28;20038;-72
2022/09/25 00:58:58;;;;;;;19.85;9.07;;;;;;;11.72;100.00;101032.72;6204233;28;20061;-71
2022/09/25 01:02:00;;;;;;;20.65;9.05;;;;;;;11.71;100.00;101027.50;6201769;28;20058;-72
2022/09/25 01:05:06;;;;;;;19.50;9.38;;;;;;;11.66;100.00;101025.97;6201550;28;20520;-72
2022/09/25 01:08:11;;;;;;;17.27;9.30;;;;;;;11.58;100.00;101033.44;6202488;28;20050;-72
2022/09/25 01:11:12;;;;;;;19.15;9.32;;;;;;;11.64;100.00;101033.09;6201524;28;20046;-72
2022/09/25 01:14:16;;;;;;;19.10;9.55;;;;;;;11.74;100.00;101035.25;6201364;28;20053;-72
2022/09/25 01:17:25;;;;;;;17.15;9.35;;;;;;;11.67;100.00;101037.34;6201664;28;20050;-72
2022/09/25 01:20:48;;;;;;;24.15;9.50;;;;;;;11.67;100.00;101027.69;6201328;28;20482;-72
2022/09/25 01:24:00;;;;;;;20.30;9.65;;;;;;;11.66;100.00;101031.22;6201240;28;20058;-72
2022/09/25 01:27:29;;;;;;;20.40;10.27;;;;;;;11.65;100.00;101026.91;6201539;28;20046;-72
2022/09/25 01:30:38;;;;;;;13.93;7.68;;;;;;;11.78;100.00;101032.38;6200882;28;20513;-71
2022/09/25 01:33:46;;;;;;;20.02;9.27;;;;;;;11.70;100.00;101031.91;6201282;28;20418;-72
2022/09/25 01:36:53;;;;;;;16.02;8.65;;;;;;;11.62;100.00;101034.97;6200902;28;20590;-72
2022/09/25 01:40:03;;;;;;;19.80;9.48;;;;;;;11.68;100.00;101032.00;6200926;28;20105;-72
2022/09/25 01:43:12;;;;;;;19.77;8.80;;;;;;;11.58;100.00;101035.19;6200622;28;20077;-72
2022/09/25 01:46:18;;;;;;;15.23;8.05;;;;;;;11.60;100.00;101034.19;6200782;28;20454;-72
2022/09/25 01:49:26;;;;;;;14.50;7.53;;;;;;;11.61;100.00;101035.91;6200758;28;20387;-72
2022/09/25 01:52:35;;;;;;;20.13;8.05;;;;;;;11.61;100.00;101035.91;6200219;28;20566;-72
2022/09/25 01:55:42;;;;;;;16.17;7.10;;;;;;;11.65;100.00;101032.16;6200257;28;20050;-72
2022/09/25 01:58:52;;;;;;;17.50;7.88;;;;;;;11.59;100.00;101031.66;6200714;28;20418;-71
2022/09/25 02:01:59;;;;;;;12.15;6.20;;;;;;;11.71;100.00;101040.66;6200195;28;20054;-71
2022/09/25 02:05:07;;;;;;;15.32;7.00;;;;;;;11.69;100.00;101030.22;6200348;28;20046;-72
2022/09/25 02:08:13;;;;;;;9.98;5.13;;;;;;;11.64;100.00;101032.25;6200364;28;20502;-72
2022/09/25 02:11:15;;;;;;;10.52;5.38;;;;;;;11.66;100.00;101038.28;6200126;28;20133;-72
2022/09/25 02:14:21;;;;;;;8.65;5.20;;;;;;;11.67;100.00;101038.22;6200217;28;20051;-72
2022/09/25 02:20:57;;;;;;;10.52;4.85;;;;;;;11.50;100.00;101033.00;6199940;28;20050;-71
2022/09/25 02:24:04;;;;;;;;;;;;;;;11.58;100.00;101037.81;6200279;28;20058;-73
2022/09/25 02:27:05;;;;;;;8.95;4.50;;;;;;;11.51;100.00;101029.41;6200321;28;19922;-71
2022/09/25 02:30:07;;;;;;;8.23;4.22;;;;;;;11.54;100.00;101036.31;6199627;28;20055;-71
2022/09/25 02:33:10;;;;;;;9.23;4.60;;;;;;;11.57;100.00;101034.34;6199876;28;20058;-72
2022/09/25 02:36:17;;;;;;;10.35;4.72;;;;;;;11.48;100.00;101036.63;6199145;28;20422;-72
2022/09/25 02:39:21;;;;;;;10.73;3.70;;;;;;;11.57;100.00;101036.97;6199808;28;20054;-72
2022/09/25 02:42:31;;;;;;;7.07;4.28;;;;;;;11.56;100.00;101045.81;6197803;28;20061;-71
2022/09/25 02:45:37;;;;;;;;;;;;;;;11.53;100.00;101035.44;6223817;28;20053;-72
2022/09/25 02:48:48;;;;;;;9.00;3.95;;;;;;;11.55;100.00;101038.00;6200508;28;19926;-72
2022/09/25 02:51:57;;;;;;;6.38;3.67;;;;;;;11.61;100.00;101040.31;6199360;28;20489;-72
2022/09/25 02:55:05;;;;;;;7.97;4.00;;;;;;;11.64;100.00;101041.00;6210141;28;20061;-72
2022/09/25 02:58:13;;;;;;;9.80;4.27;;;;;;;11.62;100.00;101042.84;6223799;28;20057;-72
2022/09/25 03:01:18;;;;;;;10.82;4.40;;;;;;;11.67;100.00;101039.97;6223352;28;20050;-72
2022/09/25 03:04:21;;;;;;;4.68;3.03;;;;;;;11.64;100.00;101037.53;6222562;28;20058;-72
2022/09/25 03:07:23;;;;;;;11.18;3.92;;;;;;;11.65;100.00;101036.59;6223376;28;20046;-72
2022/09/25 03:10:25;;;;;;;5.60;3.13;;;;;;;11.66;100.00;101031.22;6223121;28;20052;-72
2022/09/25 03:13:30;;;;;;;9.25;4.72;;;;;;;11.69;100.00;101035.50;6223218;28;20073;-72
2022/09/25 03:16:38;;;;;;;8.70;3.03;;;;;;;11.67;100.00;101043.47;6223017;28;20050;-72
2022/09/25 03:19:40;;;;;;;7.70;3.40;;;;;;;11.64;100.00;101040.16;6223019;28;20056;-72
2022/09/25 03:22:42;;;;;;;12.68;3.28;;;;;;;11.64;100.00;101030.47;6223286;28;20050;-72
2022/09/25 03:25:43;;;;;;;4.30;2.85;;;;;;;11.60;100.00;101035.97;6222628;28;20050;-72
2022/09/25 03:28:46;;;;;;;7.90;2.97;;;;;;;11.57;100.00;101036.13;6223016;28;20057;-72
2022/09/25 03:31:48;;;;;;;6.22;3.05;;;;;;;11.58;100.00;101030.81;6222576;28;20053;-73
2022/09/25 03:34:51;;;;;;;6.50;3.13;;;;;;;11.57;100.00;101031.72;6222526;28;20046;-73
2022/09/25 03:37:52;;;;;;;5.25;3.05;;;;;;;11.54;100.00;101039.81;6222906;28;20053;-72
2022/09/25 03:40:53;;;;;;;10.45;3.63;;;;;;;11.53;100.00;101039.84;6222400;28;20508;-72
2022/09/25 03:43:55;;;;;;;5.72;2.50;;;;;;;11.51;100.00;101039.09;6222509;28;20050;-72
2022/09/25 03:46:57;;;;;;;4.63;2.72;;;;;;;11.51;100.00;101042.59;6222784;28;20049;-73
2022/09/25 03:49:59;;;;;;;4.97;2.45;;;;;;;11.50;100.00;101034.78;6222364;28;20042;-72
2022/09/25 03:53:01;;;;;;;9.38;3.53;;;;;;;11.41;100.00;101036.09;6222536;28;20050;-72
2022/09/25 03:56:05;;;;;;;9.75;3.70;;;;;;;11.45;100.00;101028.91;6222188;28;20402;-72
2022/09/25 03:59:06;;;;;;;6.47;2.67;;;;;;;11.42;100.00;101028.13;6222516;28;20054;-72
2022/09/25 04:02:09;;;;;;;8.57;3.75;;;;;;;11.41;100.00;101034.31;6221993;28;20597;-72
2022/09/25 04:05:12;;;;;;;8.93;2.95;;;;;;;11.42;100.00;101025.50;6221946;28;20050;-73
2022/09/25 04:08:13;;;;;;;5.07;2.90;;;;;;;11.48;100.00;101034.00;6222304;28;20405;-72
2022/09/25 04:11:15;;;;;;;8.60;4.00;;;;;;;11.41;100.00;101025.59;6221905;28;20042;-72
2022/09/25 04:14:16;;;;;;;5.78;3.20;;;;;;;11.40;100.00;101030.00;6221662;28;20050;-72
2022/09/25 04:17:18;;;;;;;6.40;2.92;;;;;;;11.39;100.00;101024.78;6222372;28;20050;-72
2022/09/25 04:20:20;;;;;;;4.82;3.05;;;;;;;11.40;100.00;101029.16;6221691;28;20129;-72
2022/09/25 04:23:22;;;;;;;6.47;3.25;;;;;;;11.32;100.00;101026.91;6222237;28;20061;-73
2022/09/25 04:26:24;;;;;;;9.60;2.92;;;;;;;11.33;100.00;101025.97;6221557;28;20621;-72
2022/09/25 04:29:25;;;;;;;4.25;3.20;;;;;;;11.32;100.00;101024.28;6222162;28;20437;-72
2022/09/25 04:35:47;;;;;;;5.22;3.25;;;;;;;11.34;100.00;101022.41;6221557;28;20050;-73
2022/09/25 04:38:48;;;;;;;7.65;2.88;;;;;;;11.36;100.00;101031.09;6222004;28;20053;-73
2022/09/25 04:41:50;;;;;;;5.60;2.60;;;;;;;11.38;100.00;101033.63;6221511;28;20398;-72
2022/09/25 04:44:52;;;;;;;3.28;2.10;;;;;;;11.45;100.00;101031.53;6221474;28;20309;-72
2022/09/25 04:47:54;;;;;;;5.43;2.63;;;;;;;11.37;100.00;101030.16;6221659;28;20054;-73
2022/09/25 04:50:57;;;;;;;11.50;2.33;;;;;;;11.41;100.00;101030.84;6221603;28;20046;-73
2022/09/25 04:53:58;;;;;;;3.53;2.20;;;;;;;11.40;100.00;101024.72;6221238;28;20540;-72
2022/09/25 04:57:01;;;;;;;3.53;1.95;;;;;;;11.41;100.00;101018.53;6221930;28;20527;-72
2022/09/25 05:00:04;;;;;;;7.40;1.77;;;;;;;11.45;100.00;101023.66;6221217;28;20390;-72
2022/09/25 05:03:05;;;;;;;2.60;1.23;;;;;;;11.42;100.00;101025.50;6221702;28;20054;-72
2022/09/25 05:06:08;;;;;;;10.40;1.65;;;;;;;11.42;100.00;101024.66;6221136;28;20053;-73
2022/09/25 05:09:09;;;;;;;2.20;1.38;;;;;;;11.39;100.00;101020.38;6221780;28;20057;-72
2022/09/25 05:12:11;;;;;;;4.10;1.40;;;;;;;11.36;100.00;101017.94;6221171;28;20049;-72
2022/09/25 05:15:12;;;;;;;3.00;1.80;;;;;;;11.37;100.00;101026.66;6220876;28;20525;-72
2022/09/25 05:18:17;;;;;;;2.10;1.38;;;;;;;11.33;100.00;101027.75;6221664;28;20054;-72
2022/09/25 05:21:20;;;;;;;2.75;1.50;;;;;;;11.29;100.00;101021.78;6220988;28;20053;-72
2022/09/25 05:24:21;;;;;;;1.73;1.33;;;;;;;11.24;100.00;101026.44;6221129;28;20497;-72
2022/09/25 05:27:22;;;;;;;4.85;1.50;;;;;;;11.19;100.00;101017.94;6223387;28;20057;-73
2022/09/25 05:30:24;;;;;;;2.80;1.50;;;;;;;11.18;100.00;101021.50;6225492;28;20046;-72
2022/09/25 05:33:26;;;;;;;5.03;1.45;;;;;;;11.14;100.00;101027.84;6225641;28;20452;-73
2022/09/25 05:36:29;;;;;;;2.33;1.45;;;;;;;11.14;100.00;101023.44;6225256;28;20057;-72
2022/09/25 05:39:30;;;;;;;3.45;1.33;;;;;;;11.18;100.00;101029.41;6225540;28;20058;-72
2022/09/25 05:42:32;;;;;;;5.03;1.45;;;;;;;11.18;100.00;101019.72;6225161;28;20056;-72
2022/09/25 05:45:34;;;;;;;1.92;1.63;;;;;;;11.20;100.00;101016.16;6221439;28;20521;-73
2022/09/25 05:48:36;;;;;;;7.00;1.70;;;;;;;11.22;100.00;101019.53;6211082;28;20050;-72
2022/09/25 05:51:39;;;;;;;3.97;1.73;;;;;;;11.22;100.00;101023.06;6212470;28;20053;-73
2022/09/25 05:54:40;;;;;;;3.95;1.77;;;;;;;11.22;100.00;101016.91;6211924;28;20061;-72
2022/09/25 05:57:42;;;;;;;4.40;1.30;;;;;;;11.21;100.00;101017.84;6212880;28;20046;-72
2022/09/25 06:00:44;;;;;;;3.20;1.80;;;;;;;11.22;100.00;101011.66;6224572;28;20046;-72
2022/09/25 06:03:45;;;;;;;2.72;1.17;;;;;;;11.23;100.00;101010.75;6224764;28;20160;-72
2022/09/25 06:06:48;;;;;;;2.38;1.30;;;;;;;11.26;100.00;101013.19;6224614;28;20054;-72
2022/09/25 06:09:49;;;;;;;2.38;1.40;;;;;;;11.29;100.00;101018.31;6212732;28;20421;-72
2022/09/25 06:12:51;;;;;;;6.47;2.05;;;;;;;11.28;100.00;101020.09;6211540;28;20053;-73
2022/09/25 06:15:53;;;;;;;2.25;1.20;;;;;;;11.32;100.00;101024.28;6200037;28;20525;-72
2022/09/25 06:18:55;;;;;;;2.67;1.48;;;;;;;11.34;100.00;101021.56;6216542;28;20057;-72
2022/09/25 06:21:57;;;;;;;6.60;1.50;;;;;;;11.34;100.00;101018.91;6210248;28;20050;-72
2022/09/25 06:24:58;;;;;;;8.88;1.27;;;;;;;11.36;100.00;101024.97;6202483;28;20061;-72
2022/09/25 06:28:01;;;;;;;3.08;1.20;;;;;;;11.40;100.00;101022.09;6204913;28;20052;-73
2022/09/25 06:31:04;;;;;;;2.00;1.00;;;;;;;11.42;100.00;101020.22;6223858;28;20069;-73
2022/09/25 06:34:05;;;;;;;2.70;1.23;;;;;;;11.46;100.00;101028.81;6223659;28;20053;-72
2022/09/25 06:37:08;;;;;;;4.60;1.23;;;;;;;11.48;100.00;101026.94;6220211;28;20671;-73
2022/09/25 06:40:09;;;;;;;5.50;1.20;;;;;;;11.48;100.00;101026.94;6207998;28;20051;-73
2022/09/25 06:43:13;;;;;;;2.17;1.50;;;;;;;11.47;100.00;101019.97;6205974;28;20054;-73
2022/09/25 06:46:14;;;;;;;2.72;0.88;;;;;;;11.46;100.00;101020.91;6212557;28;20054;-72
2022/09/25 06:49:15;;;;;;;3.25;1.00;;;;;;;11.50;100.00;101022.47;6224071;28;20054;-72
2022/09/25 06:52:19;;;;;;;1.80;1.08;;;;;;;11.52;100.00;101025.00;6223296;28;20053;-73
2022/09/25 06:55:20;;;;;;;3.38;1.63;;;;;;;11.42;100.00;101022.00;6223392;28;20498;-73
2022/09/25 06:58:24;;;;;;;2.92;1.50;;;;;;;11.46;100.00;101031.44;6223580;28;20434;-71
2022/09/25 07:01:25;;;;;;;3.08;1.00;;;;;;;11.46;100.00;101028.81;6223094;28;20045;-72
2022/09/25 07:04:25;;;;;;;10.32;2.13;;;;;;;11.49;100.00;101033.94;6223251;28;20057;-72
2022/09/25 07:07:28;;;;;;;2.53;1.02;;;;;;;11.49;100.00;101033.94;6223441;28;20100;-72
2022/09/25 07:10:29;;;;;;;1.60;1.13;;;;;;;11.61;100.00;101030.63;6223180;28;20085;-72
2022/09/25 07:13:32;;;;;;;3.42;1.60;;;;;;;11.71;100.00;101040.66;6223224;28;20509;-72
2022/09/25 07:16:34;;;;;;;1.77;1.20;;;;;;;11.80;100.00;101033.13;6222799;28;20405;-73
2022/09/25 07:19:35;;;;;;;5.50;1.60;;;;;;;11.84;100.00;101042.59;6223353;28;20057;-72
2022/09/25 07:22:38;;;;;;;2.25;1.42;;;;;;;11.84;100.00;101039.13;6222756;28;20394;-72
2022/09/25 07:25:40;;;;;;;3.78;1.73;;;;;;;11.87;100.00;101047.72;6222646;28;20050;-72
2022/09/25 07:28:43;;;;;;;5.55;1.52;;;;;;;11.88;100.00;101040.66;6223488;28;20505;-72
2022/09/25 07:31:44;;;;;;;4.72;1.40;;;;;;;11.92;100.00;101040.41;6222613;28;20080;-73
2022/09/25 07:34:49;;;;;;;7.25;1.52;;;;;;;12.08;100.00;101039.56;6222316;28;20045;-73
2022/09/25 07:37:55;;;;;;;4.35;2.25;;;;;;;12.04;100.00;101038.06;6222621;28;20053;-72
2022/09/25 07:40:56;;;;;;;4.72;1.70;;;;;;;12.11;100.00;101042.88;6222381;28;20050;-73
2022/09/25 07:43:59;;;;;;;2.30;1.70;;;;;;;12.15;100.00;101040.94;6222393;28;20054;-72
2022/09/25 07:47:02;;;;;;;4.22;1.88;;;;;;;12.11;100.00;101042.88;6222548;28;20050;-73
2022/09/25 07:50:04;;;;;;;4.40;2.25;;;;;;;12.28;100.00;101047.22;6221865;28;20251;-73
2022/09/25 07:53:07;;;;;;;5.60;2.08;;;;;;;12.28;100.00;101044.59;6222461;28;20058;-73
2022/09/25 07:56:10;;;;;;;6.03;2.25;;;;;;;12.16;100.00;101042.63;6222272;28;20144;-73
2022/09/25 07:59:11;;;;;;;8.32;2.40;;;;;;;12.16;100.00;101053.16;6210454;28;20057;-72
2022/09/25 08:02:13;;;;;;;3.17;1.98;;;;;;;12.27;100.00;101052.59;6210068;28;20046;-72
2022/09/25 08:05:14;;;;;;;3.85;1.80;;;;;;;12.33;100.00;101044.34;6219525;28;20056;-72
2022/09/25 08:08:17;;;;;;;5.75;1.95;;;;;;;12.32;100.00;101047.91;6198148;28;20054;-73
2022/09/25 08:11:18;;;;;;;5.60;2.55;;;;;;;12.38;100.00;101052.81;6197484;28;20053;-72
2022/09/25 08:14:21;;;;;;;4.30;1.67;;;;;;;12.45;100.00;101054.19;6208756;28;20046;-73
2022/09/25 08:17:22;;;;;;;2.97;1.83;;;;;;;12.31;100.00;101062.00;6207084;28;20056;-72
2022/09/25 08:20:24;;;;;;;4.45;1.70;;;;;;;12.26;100.00;101059.63;6206572;28;20061;-72
2022/09/25 08:23:26;;;;;;;2.15;1.42;;;;;;;12.36;100.00;101057.34;6204679;28;20061;-73
2022/09/25 08:26:29;;;;;;;3.67;1.60;;;;;;;12.50;100.00;101051.31;6197309;28;20054;-73
2022/09/25 08:29:30;;;;;;;3.15;1.77;;;;;;;12.46;100.00;101047.97;6197771;28;20054;-73
2022/09/25 08:32:33;;;;;;;5.65;2.00;;;;;;;12.55;100.00;101047.47;6197208;28;20054;-72
2022/09/25 08:35:34;;;;;;;2.60;1.80;;;;;;;12.52;100.00;101052.06;6197241;28;20050;-73
2022/09/25 08:38:37;;;;;;;1.92;1.63;;;;;;;12.58;100.00;101052.56;6197630;28;20057;-72
2022/09/25 08:41:47;;;;;;;1.92;1.65;;;;;;;12.59;100.00;101053.41;6197345;28;20050;-73
2022/09/25 08:49:00;;;;;;;3.30;2.20;;;;;;;12.58;100.00;101052.56;6220371;28;20129;-73
2022/09/25 08:51:43;;;;;;;4.43;2.03;;;;;;;12.73;100.00;101053.47;6220962;28;20046;-72
2022/09/25 08:54:46;;;;;;;4.97;2.10;;;;;;;12.92;100.00;101061.16;6221567;28;20053;-74
2022/09/25 08:57:49;;;;;;;4.82;2.10;;;;;;;12.89;100.00;101056.06;6221547;28;20049;-73
2022/09/25 09:00:52;;;;;;;2.80;1.77;;;;;;;12.95;100.00;101066.28;6213254;28;20042;-73
2022/09/25 09:04:04;;;;;;;2.22;1.70;;;;;;;13.04;100.00;101054.34;6225719;28;20049;-72
2022/09/25 09:07:08;;;;;;;1.85;1.67;;;;;;;12.94;100.00;101065.44;6215063;28;20472;-73
2022/09/25 09:10:23;;;;;;;6.35;2.10;;;;;;;12.86;100.00;101066.81;6221635;28;20485;-73
2022/09/25 09:13:30;;;;;;;2.60;1.60;;;;;;;12.98;100.00;101063.44;6220004;28;20042;-73
2022/09/25 09:16:38;;;;;;;4.43;1.88;;;;;;;12.95;100.00;101061.00;6223787;28;20425;-73
2022/09/25 09:19:40;;;;;;;1.83;1.60;;;;;;;12.93;100.00;101058.44;6204492;28;20050;-72
2022/09/25 09:22:47;;;;;;;2.28;1.60;;;;;;;12.98;100.00;101068.72;6212400;28;20060;-73
2022/09/25 09:26:00;;;;;;;3.33;1.20;;;;;;;12.89;100.00;101062.19;6225255;28;20080;-74
2022/09/25 09:29:20;;;;;;;2.47;1.40;;;;;;;12.91;100.00;101062.13;6225628;28;20473;-74
2022/09/25 09:32:33;;;;;;;3.72;1.20;;;;;;;12.94;100.00;101054.88;6209536;28;20057;-73
2022/09/25 09:35:58;;;;;;;2.13;1.58;;;;;;;12.97;100.00;101060.91;6221951;28;20425;-74
2022/09/25 09:39:07;;;;;;;4.22;2.35;;;;;;;13.06;100.00;101057.72;6214728;28;20136;-74
2022/09/25 09:42:17;;;;;;;1.85;1.70;;;;;;;13.11;100.00;101053.88;6200940;28;20047;-75
2022/09/25 09:45:27;;;;;;;2.38;1.98;;;;;;;13.18;100.00;101051.72;6200637;28;20123;-73
2022/09/25 09:48:34;;;;;;;3.88;1.20;;;;;;;13.14;100.00;101044.94;6218732;28;20054;-75
2022/09/25 09:51:42;;;;;;;1.63;1.33;;;;;;;13.22;100.00;101053.28;6224437;28;20046;-74
2022/09/25 09:54:47;;;;;;;1.63;1.08;;;;;;;13.27;100.00;101059.13;6224627;28;20563;-73
2022/09/25 09:57:53;;;;;;;1.42;1.08;;;;;;;13.34;100.00;101046.41;6224103;28;20050;-73
2022/09/25 10:00:55;;;;;;;1.10;0.80;;;;;;;13.42;100.00;101039.72;6222202;28;20042;-74
2022/09/25 10:04:03;;;;;;;1.85;1.05;;;;;;;13.58;100.00;101047.59;6222949;28;20058;-74
2022/09/25 10:07:11;;;;;;;1.75;1.10;;;;;;;13.65;100.00;101035.69;6247124;28;20128;-74
2022/09/25 10:10:14;;;;;;;0.83;0.63;;;;;;;13.62;100.00;101042.94;6239709;28;20045;-74
2022/09/25 10:13:20;;;;;;;2.88;0.88;;;;;;;13.74;100.00;101042.19;6248927;28;20049;-73
2022/09/25 10:16:23;;;;;;;4.35;0.88;;;;;;;13.87;100.00;101032.56;6248749;28;20056;-73
2022/09/25 10:19:27;;;;;;;3.75;0.68;;;;;;;13.91;96.96;101034.06;6249084;28;20068;-73
2022/09/25 10:22:37;;;;;;;0.80;0.50;;;;;;;13.86;96.83;101033.50;6248874;28;20046;-73
2022/09/25 10:25:39;;;;;;;;;;;;;;;13.90;98.87;101028.91;6248920;28;20053;-73
2022/09/25 10:28:42;;;;;;;1.02;0.43;;;;;;;14.06;100.00;101026.13;6249228;28;19928;-73
2022/09/25 10:31:44;;;;;;;3.22;1.25;;;;;;;14.17;100.00;101024.50;6248391;28;20057;-73
2022/09/25 10:34:52;;;;;;;1.90;0.60;;;;;;;14.16;99.90;101035.16;6248714;28;20049;-74
2022/09/25 10:37:55;;;;;;;1.98;0.80;;;;;;;14.03;100.00;101036.88;6248750;28;20056;-74
2022/09/25 10:41:01;;;;;;;5.50;1.00;;;;;;;14.06;100.00;101026.13;6248380;28;20424;-73
2022/09/25 10:44:22;;;;;;;1.13;0.50;;;;;;;14.16;98.38;101028.06;6248176;28;20045;-73
2022/09/25 10:51:06;;;;;;;0.28;0.28;;;;;;;14.43;92.27;101024.59;6248172;28;20057;-73
2022/09/25 10:54:12;;;;;;;2.05;0.90;;;;;;;14.51;95.07;101022.34;6247933;28;20519;-74
2022/09/25 10:57:17;;;;;;;0.85;0.50;;;;;;;14.62;95.01;101026.91;6248519;28;20051;-73
2022/09/25 11:00:22;;;;;;;0.30;0.30;;;;;;;14.72;90.41;101022.75;6247758;28;20053;-74
2022/09/25 11:03:29;;;;;;;0.52;0.38;;;;;;;14.77;94.28;101031.22;6248520;28;20136;-73
2022/09/25 11:06:33;;;;;;;3.58;0.60;;;;;;;14.79;91.78;101031.94;6247590;28;20049;-72
2022/09/25 11:09:42;;;;;;;4.93;0.60;;;;;;;14.69;89.69;101036.16;6247957;28;20049;-73
2022/09/25 11:12:45;;;;;;;2.00;0.47;;;;;;;14.75;89.74;101029.59;6247695;28;20046;-73
2022/09/25 11:15:52;;;;;;;3.88;0.55;;;;;;;14.65;90.91;101029.38;6247248;28;20413;-73
2022/09/25 11:19:07;;;;;;;4.25;0.88;;;;;;;14.77;93.08;101023.28;6247701;28;20053;-73
2022/09/25 11:22:19;;;;;;;5.63;0.93;;;;;;;14.88;87.89;101022.56;6247490;28;20049;-73
2022/09/25 11:25:26;;;;;;;2.92;0.55;;;;;;;14.94;88.72;101019.50;6246528;28;20493;-73
2022/09/25 11:28:35;;;;;;;0.30;0.30;;;;;;;15.08;90.78;101006.19;6247638;28;20049;-73
2022/09/25 11:31:42;;;;;;;0.43;0.40;;;;;;;15.38;89.70;101002.38;6246967;28;20089;-73
2022/09/25 11:35:04;;;;;;;0.30;0.30;;;;;;;15.72;88.10;101009.69;6247103;28;20052;-73
2022/09/25 11:38:14;;;;;;;1.50;0.80;;;;;;;15.73;87.88;101013.19;6247442;28;20049;-73
2022/09/25 11:41:22;;;;;;;1.55;0.40;;;;;;;15.82;84.41;101007.25;6247134;28;20501;-73
2022/09/25 11:44:41;;;;;;;0.77;0.43;;;;;;;15.75;85.80;101007.78;6246506;28;20050;-73
2022/09/25 11:47:52;;;;;;;1.38;0.55;;;;;;;16.07;84.17;101010.78;6247305;28;20056;-73
2022/09/25 11:51:03;;;;;;;3.67;0.43;;;;;;;15.86;82.02;101000.78;6246692;28;20055;-73
2022/09/25 11:54:16;;;;;;;1.55;0.50;;;;;;;15.94;86.22;101010.81;6246813;28;20053;-73
2022/09/25 11:57:25;;;;;;;1.85;0.75;;;;;;;15.93;85.64;101002.00;6247079;28;20050;-73
2022/09/25 12:00:35;;;;;;;0.73;0.40;;;;;;;16.03;90.22;101002.19;6246810;28;20052;-73
2022/09/25 12:03:52;;;;;;;2.47;0.47;;;;;;;16.05;79.49;101002.09;6246927;28;20049;-73
2022/09/25 12:07:21;;;;;;;0.52;0.40;;;;;;;15.84;80.65;101007.97;6246911;28;20049;-73
2022/09/25 12:10:34;;;;;;;1.27;0.50;;;;;;;15.55;86.86;101002.06;6246824;28;20598;-73
2022/09/25 12:13:43;;;;;;;0.85;0.60;;;;;;;15.24;85.93;100992.75;6246619;28;20045;-73
2022/09/25 12:16:53;;;;;;;2.08;0.50;;;;;;;15.02;87.25;100998.66;6246848;28;20061;-73
2022/09/25 12:20:01;;;;;;;1.58;1.00;;;;;;;14.90;90.03;100991.56;6246330;28;20057;-73
2022/09/25 12:23:13;;;;;;;1.83;0.65;;;;;;;14.83;87.78;100995.56;6246862;28;20103;-72
2022/09/25 12:26:23;;;;;;;0.60;0.40;;;;;;;14.71;90.00;100987.47;6246094;28;20045;-73
2022/09/25 12:29:38;;;;;;;0.90;0.50;;;;;;;14.76;91.68;100981.03;6246573;28;20045;-73
2022/09/25 12:32:54;;;;;;;1.55;0.50;;;;;;;14.65;90.24;100987.06;6246274;28;20084;-73
2022/09/25 12:36:03;;;;;;;0.60;0.38;;;;;;;14.71;93.14;100986.63;6247893;28;20049;-73
2022/09/25 12:39:25;;;;;;;2.10;0.55;;;;;;;14.58;94.80;100980.47;6251736;28;20049;-72
2022/09/25 12:42:38;;;;;;;1.08;0.55;;;;;;;14.53;98.71;100975.47;6251126;28;20049;-73
2022/09/25 12:45:45;;;;;;;2.20;0.88;;;;;;;14.40;100.00;100971.94;6251230;28;20056;-73
2022/09/25 12:48:50;;;;;;;2.53;0.43;;;;;;;14.28;100.00;100978.03;6251247;28;20053;-73
2022/09/25 12:51:57;;;;;;;0.57;0.43;;;;;;;14.12;100.00;100972.88;6251079;28;20528;-73
2022/09/25 12:55:04;;;;;;;0.43;0.35;;;;;;;14.15;100.00;100968.22;6250306;28;20049;-73
2022/09/25 12:58:20;;;;;;;2.47;0.73;;;;;;;14.18;100.00;100962.75;6251002;28;20084;-73
2022/09/25 13:01:27;;;;;;;1.23;1.00;;;;;;;14.24;100.00;100972.06;6236627;28;20180;-74
2022/09/25 13:04:48;;;;;;;0.40;0.40;;;;;;;14.27;100.00;100971.03;6249288;28;20057;-72
2022/09/25 13:07:57;;;;;;;0.55;0.52;;;;;;;14.23;100.00;100972.19;6249198;28;20049;-73
2022/09/25 13:11:06;;;;;;;1.08;0.52;;;;;;;14.11;100.00;100973.81;6250396;28;20052;-73
2022/09/25 13:14:23;;;;;;;1.65;0.80;;;;;;;14.04;100.00;100968.09;6250081;28;20049;-73
2022/09/25 13:17:25;;;;;;;0.57;0.57;;;;;;;14.18;100.00;100969.84;6250645;28;20052;-74
2022/09/25 13:20:48;;;;;;;2.85;0.70;;;;;;;14.36;100.00;100967.78;6244579;28;20042;-73
2022/09/25 13:23:53;;;;;;;1.95;0.75;;;;;;;14.52;100.00;100970.28;6243171;28;20053;-73
2022/09/25 13:27:02;;;;;;;0.30;0.30;;;;;;;14.36;100.00;100963.34;6249035;28;20081;-73
2022/09/25 13:30:04;;;;;;;2.00;0.52;;;;;;;14.42;100.00;100957.66;6246439;28;20065;-73
2022/09/25 13:33:06;;;;;;;0.38;0.30;;;;;;;14.44;100.00;100954.91;6246510;28;20046;-73
2022/09/25 13:36:10;;;;;;;0.85;0.65;;;;;;;14.38;99.48;100965.88;6245267;28;20053;-72
2022/09/25 13:42:42;;;;;;;0.43;0.35;;;;;;;14.34;94.89;100961.75;6242697;28;20501;-73
2022/09/25 13:45:44;;;;;;;6.22;0.30;;;;;;;14.36;94.96;100955.41;6249717;28;20057;-73
2022/09/25 13:48:45;;;;;;;3.35;0.50;;;;;;;14.28;92.09;100959.50;6250091;28;20045;-74
2022/09/25 13:51:46;;;;;;;1.42;0.32;;;;;;;14.32;92.76;100963.66;6249359;28;20045;-73
2022/09/25 13:54:49;;;;;;;0.57;0.30;;;;;;;14.18;93.56;100965.41;6249639;28;20057;-73
2022/09/25 13:58:03;;;;;;;0.80;0.30;;;;;;;14.12;94.95;100962.28;6249516;28;20061;-73
2022/09/25 14:01:20;;;;;;;0.73;0.30;;;;;;;14.14;94.59;100963.06;6249485;28;20050;-73
2022/09/25 14:04:31;;;;;;;1.33;0.47;;;;;;;14.18;97.73;100953.97;6246612;28;20058;-73
2022/09/25 14:07:34;;;;;;;0.32;0.30;;;;;;;14.25;98.94;100951.78;6248365;28;20053;-73
2022/09/25 14:10:37;;;;;;;1.15;0.60;;;;;;;14.26;97.10;100943.75;6249009;28;20045;-73
2022/09/25 14:13:42;;;;;;;0.90;0.47;;;;;;;14.22;94.69;100950.19;6249401;28;20041;-73
2022/09/25 14:16:46;;;;;;;0.73;0.30;;;;;;;14.22;95.15;100950.19;6249210;28;20084;-74
2022/09/25 14:19:51;;;;;;;0.32;0.28;;;;;;;14.17;93.67;100950.50;6248895;28;20057;-73
2022/09/25 14:22:55;;;;;;;0.30;0.30;;;;;;;14.25;92.09;100944.69;6249237;28;20049;-74
2022/09/25 14:25:59;;;;;;;3.42;0.20;;;;;;;14.17;92.13;100942.56;6248669;28;20045;-73
2022/09/25 14:29:00;;;;;;;0.50;0.40;;;;;;;14.14;89.77;100941.91;6249014;28;20087;-73
2022/09/25 14:32:16;;;;;;;2.20;0.55;;;;;;;14.19;90.27;100932.72;6248493;28;20052;-73